createdAt,value
2023-03-21T00:00:57.185Z,61.72
2023-03-21T00:02:18.569Z,59.94
2023-03-21T00:03:52.830Z,57.82
2023-03-21T00:05:22.156Z,57.39
2023-03-21T00:06:55.758Z,59.15
2023-03-21T00:08:19.418Z,60.73
2023-03-21T00:10:15.413Z,63.17
2023-03-21T00:11:41.368Z,64.96
2023-03-21T00:13:15.017Z,63.65
2023-03-21T00:14:38.767Z,61.23
2023-03-21T00:16:04.988Z,59.30
2023-03-21T00:17:44.779Z,57.63
2023-03-21T00:19:09.675Z,58.17
2023-03-21T00:20:31.435Z,59.80
2023-03-21T00:22:07.981Z,61.60
2023-03-21T00:23:42.060Z,64.58
2023-03-21T00:25:03.597Z,65.12
2023-03-21T00:26:25.369Z,63.85
2023-03-21T00:28:01.450Z,61.67
2023-03-21T00:29:40.454Z,59.37
2023-03-21T00:31:12.518Z,57.69
2023-03-21T00:32:39.746Z,58.46
2023-03-21T00:34:04.414Z,60.15
2023-03-21T00:35:58.015Z,62.13
2023-03-21T00:37:16.679Z,64.66
2023-03-21T00:38:43.328Z,64.32
2023-03-21T00:40:23.093Z,61.97
2023-03-21T00:42:01.731Z,59.73
2023-03-21T00:43:23.570Z,57.67
2023-03-21T00:45:09.957Z,57.86
2023-03-21T00:47:06.541Z,59.77
2023-03-21T00:48:31.738Z,62.10
2023-03-21T00:50:01.550Z,64.29
2023-03-21T00:51:26.751Z,64.87
2023-03-21T00:52:51.377Z,63.18
2023-03-21T00:54:20.465Z,60.89
2023-03-21T00:55:44.894Z,59.19
2023-03-21T00:57:09.350Z,57.44
2023-03-21T00:58:45.038Z,58.04
2023-03-21T01:00:30.162Z,60.05
2023-03-21T01:02:19.094Z,62.30
2023-03-21T01:04:12.737Z,65.21
2023-03-21T01:05:53.232Z,63.99
2023-03-21T01:07:17.490Z,61.43
2023-03-21T01:08:51.824Z,59.60
2023-03-21T01:10:17.382Z,57.69
2023-03-21T01:11:42.228Z,57.71
2023-03-21T01:13:22.733Z,59.46
2023-03-21T01:15:03.394Z,61.74
2023-03-21T01:16:25.427Z,63.97
2023-03-21T01:17:59.638Z,64.82
2023-03-21T01:19:31.006Z,63.65
2023-03-21T01:20:59.667Z,61.19
2023-03-21T01:22:21.249Z,59.54
2023-03-21T01:24:11.598Z,57.72
2023-03-21T01:25:38.093Z,58.34
2023-03-21T01:27:00.538Z,60.16
2023-03-21T01:28:32.587Z,62.25
2023-03-21T01:30:06.222Z,64.49
2023-03-21T01:31:32.597Z,65.01
2023-03-21T01:32:56.911Z,63.21
2023-03-21T01:34:18.304Z,61.30
2023-03-21T01:35:49.168Z,59.39
2023-03-21T01:37:29.619Z,57.49
2023-03-21T01:38:55.970Z,58.39
2023-03-21T01:40:20.174Z,59.76
2023-03-21T01:41:45.081Z,61.68
2023-03-21T01:43:13.248Z,63.89
2023-03-21T01:44:54.531Z,64.77
2023-03-21T01:46:21.589Z,62.72
2023-03-21T01:48:01.114Z,60.25
2023-03-21T01:49:36.035Z,57.96
2023-03-21T01:52:01.038Z,58.02
2023-03-21T01:53:37.777Z,59.83
2023-03-21T01:55:14.317Z,62.24
2023-03-21T01:56:58.931Z,64.38
2023-03-21T01:58:23.029Z,64.28
2023-03-21T02:00:32.133Z,61.35
2023-03-21T02:02:01.635Z,58.89
2023-03-21T02:03:58.515Z,57.47
2023-03-21T02:05:58.483Z,59.33
2023-03-21T02:07:47.035Z,61.20
2023-03-21T02:09:23.108Z,63.57
2023-03-21T02:10:52.596Z,64.83
2023-03-21T02:12:48.980Z,62.68
2023-03-21T02:14:29.268Z,60.01
2023-03-21T02:16:05.652Z,57.62
2023-03-21T02:17:31.503Z,57.66
2023-03-21T02:19:13.980Z,59.31
2023-03-21T02:20:59.641Z,61.62
2023-03-21T02:22:41.050Z,64.14
2023-03-21T02:24:16.789Z,64.35
2023-03-21T02:26:02.420Z,62.06
2023-03-21T02:27:47.938Z,59.76
2023-03-21T02:29:11.974Z,57.59
2023-03-21T02:30:51.968Z,57.76
2023-03-21T02:32:25.385Z,59.73
2023-03-21T02:34:08.545Z,61.71
2023-03-21T02:35:44.123Z,64.30
2023-03-21T02:37:13.106Z,64.84
2023-03-21T02:38:41.977Z,62.96
2023-03-21T02:40:27.236Z,60.60
2023-03-21T02:42:02.040Z,57.94
2023-03-21T02:43:52.770Z,57.58
2023-03-21T02:45:25.822Z,59.09
2023-03-21T02:47:06.504Z,61.60
2023-03-21T02:48:44.368Z,63.39
2023-03-21T02:50:30.825Z,65.13
2023-03-21T02:52:14.447Z,63.27
2023-03-21T02:54:28.131Z,60.34
2023-03-21T02:55:57.587Z,57.71
2023-03-21T02:57:43.948Z,57.76
2023-03-21T02:59:25.196Z,59.66
2023-03-21T03:01:01.360Z,61.66
2023-03-21T03:03:08.235Z,64.37
2023-03-21T03:04:43.051Z,64.17
2023-03-21T03:06:07.845Z,61.88
2023-03-21T03:07:53.912Z,59.69
2023-03-21T03:09:16.612Z,57.76
2023-03-21T03:11:02.394Z,58.04
2023-03-21T03:12:44.787Z,59.87
2023-03-21T03:16:23.678Z,65.05
2023-03-21T03:17:47.838Z,64.06
2023-03-21T03:19:21.427Z,62.06
2023-03-21T03:20:55.276Z,59.50
2023-03-21T03:22:28.421Z,57.56
2023-03-21T03:24:13.816Z,58.08
2023-03-21T03:25:42.582Z,59.74
2023-03-21T03:27:19.776Z,62.05
2023-03-21T03:29:05.406Z,64.44
2023-03-21T03:30:40.953Z,64.83
2023-03-21T03:32:07.047Z,62.38
2023-03-21T03:33:42.032Z,59.91
2023-03-21T03:35:13.559Z,58.00
2023-03-21T03:36:50.630Z,57.54
2023-03-21T03:38:24.376Z,59.03
2023-03-21T03:40:07.952Z,61.19
2023-03-21T03:42:06.019Z,63.65
2023-03-21T03:43:38.208Z,64.87
2023-03-21T03:45:20.347Z,62.78
2023-03-21T03:47:05.978Z,59.66
2023-03-21T03:48:51.211Z,57.36
2023-03-21T03:50:36.619Z,58.10
2023-03-21T03:52:17.980Z,60.12
2023-03-21T03:53:44.575Z,62.29
2023-03-21T03:55:29.633Z,64.66
2023-03-21T03:57:17.728Z,63.83
2023-03-21T03:58:51.181Z,61.10
2023-03-21T04:00:27.957Z,58.49
2023-03-21T04:02:09.446Z,57.30
2023-03-21T04:04:06.967Z,58.75
2023-03-21T04:05:48.912Z,61.27
2023-03-21T04:07:22.405Z,63.36
2023-03-21T04:09:23.350Z,65.10
2023-03-21T04:11:13.495Z,62.73
2023-03-21T04:13:03.888Z,60.00
2023-03-21T04:14:48.921Z,57.36
2023-03-21T04:16:20.176Z,57.79
2023-03-21T04:18:07.806Z,59.57
2023-03-21T04:20:05.472Z,61.95
2023-03-21T04:21:45.424Z,64.89
2023-03-21T04:23:33.366Z,64.29
2023-03-21T04:25:30.777Z,61.49
2023-03-21T04:27:17.916Z,58.61
2023-03-21T04:29:05.667Z,57.64
2023-03-21T04:31:25.451Z,59.68
2023-03-21T04:33:08.993Z,61.85
2023-03-21T04:34:45.528Z,64.94
2023-03-21T04:36:31.174Z,64.71
2023-03-21T04:38:16.046Z,62.06
2023-03-21T04:39:54.470Z,59.54
2023-03-21T04:41:27.438Z,57.63
2023-03-21T04:43:16.698Z,58.34
2023-03-21T04:44:51.737Z,60.64
2023-03-21T04:46:46.089Z,62.46
2023-03-21T04:48:31.213Z,65.00
2023-03-21T04:50:08.200Z,63.98
2023-03-21T04:51:59.830Z,61.54
2023-03-21T04:53:44.856Z,59.19
2023-03-21T04:55:10.074Z,57.70
2023-03-21T04:56:48.822Z,58.40
2023-03-21T04:58:20.177Z,60.37
2023-03-21T04:59:56.321Z,62.82
2023-03-21T05:01:32.647Z,64.77
2023-03-21T05:03:01.408Z,64.12
2023-03-21T05:04:46.755Z,61.98
2023-03-21T05:06:22.438Z,59.73
2023-03-21T05:08:06.507Z,58.01
2023-03-21T05:09:55.579Z,58.29
2023-03-21T05:11:48.567Z,60.64
2023-03-21T05:13:24.266Z,62.98
2023-03-21T05:14:46.447Z,65.03
2023-03-21T05:16:31.220Z,63.84
2023-03-21T05:18:11.433Z,61.47
2023-03-21T05:19:48.480Z,59.61
2023-03-21T05:21:29.246Z,57.64
2023-03-21T05:23:14.992Z,58.52
2023-03-21T05:24:39.201Z,60.32
2023-03-21T05:26:25.187Z,62.69
2023-03-21T05:28:05.862Z,65.15
2023-03-21T05:29:39.576Z,63.85
2023-03-21T05:31:20.832Z,61.23
2023-03-21T05:32:59.110Z,59.17
2023-03-21T05:34:36.271Z,57.73
2023-03-21T05:36:11.869Z,58.94
2023-03-21T05:37:50.969Z,60.70
2023-03-21T05:39:24.269Z,63.15
2023-03-21T05:41:17.224Z,65.38
2023-03-21T05:42:52.260Z,63.81
2023-03-21T05:44:16.705Z,61.61
2023-03-21T05:45:55.576Z,59.70
2023-03-21T05:47:36.309Z,57.66
2023-03-21T05:49:06.332Z,58.27
2023-03-21T05:50:51.550Z,60.09
2023-03-21T05:52:28.522Z,62.09
2023-03-21T05:54:05.250Z,64.52
2023-03-21T05:55:50.338Z,64.70
2023-03-21T05:57:50.350Z,62.01
2023-03-21T05:59:40.705Z,59.29
2023-03-21T06:01:25.466Z,57.33
2023-03-21T06:03:23.919Z,58.93
2023-03-21T06:05:16.441Z,61.15
2023-03-21T06:07:06.022Z,64.14
2023-03-21T06:08:59.469Z,64.43
2023-03-21T06:10:44.509Z,61.87
2023-03-21T06:12:09.699Z,59.60
2023-03-21T06:14:00.813Z,57.53
2023-03-21T06:15:54.166Z,58.35
2023-03-21T06:17:37.057Z,60.64
2023-03-21T06:19:13.988Z,63.05
2023-03-21T06:21:10.604Z,64.95
2023-03-21T06:22:57.763Z,63.86
2023-03-21T06:24:35.541Z,61.11
2023-03-21T06:26:22.764Z,58.73
2023-03-21T06:27:59.469Z,57.81
2023-03-21T06:29:33.369Z,59.10
2023-03-21T06:31:09.208Z,60.83
2023-03-21T06:32:51.002Z,63.15
2023-03-21T06:34:38.392Z,65.63
2023-03-21T06:36:15.087Z,63.95
2023-03-21T06:37:55.889Z,61.30
2023-03-21T06:39:46.052Z,58.85
2023-03-21T06:41:31.516Z,57.57
2023-03-21T06:43:12.824Z,59.28
2023-03-21T06:45:06.513Z,61.22
2023-03-21T06:46:51.496Z,63.34
2023-03-21T06:48:45.617Z,64.71
2023-03-21T06:50:21.469Z,62.94
2023-03-21T06:51:48.481Z,60.90
2023-03-21T06:53:27.741Z,58.90
2023-03-21T06:55:31.234Z,57.25
2023-03-21T06:57:17.253Z,58.66
2023-03-21T06:58:49.674Z,60.91
2023-03-21T07:01:16.133Z,64.82
2023-03-21T07:02:58.355Z,65.33
2023-03-21T07:04:34.805Z,62.88
2023-03-21T07:06:19.879Z,60.02
2023-03-21T07:07:49.841Z,57.74
2023-03-21T07:09:30.073Z,57.62
2023-03-21T07:11:09.594Z,59.83
2023-03-21T07:13:05.003Z,61.74
2023-03-21T07:14:34.534Z,64.38
2023-03-21T07:16:08.278Z,64.24
2023-03-21T07:17:42.036Z,62.14
2023-03-21T07:19:17.716Z,60.09
2023-03-21T07:21:10.940Z,57.63
2023-03-21T07:22:56.083Z,58.02
2023-03-21T07:24:24.971Z,60.11
2023-03-21T07:26:01.029Z,61.89
2023-03-21T07:27:39.109Z,63.95
2023-03-21T07:29:25.471Z,65.01
2023-03-21T07:31:01.308Z,62.66
2023-03-21T07:32:46.288Z,60.21
2023-03-21T07:34:19.845Z,58.46
2023-03-21T07:35:56.681Z,57.46
2023-03-21T07:37:27.383Z,59.23
2023-03-21T07:39:12.958Z,61.26
2023-03-21T07:40:54.938Z,63.56
2023-03-21T07:44:03.696Z,63.20
2023-03-21T07:45:50.861Z,61.00
2023-03-21T07:47:33.053Z,58.96
2023-03-21T07:48:55.305Z,57.38
2023-03-21T07:50:30.965Z,58.21
2023-03-21T07:52:16.174Z,60.40
2023-03-21T07:53:57.972Z,62.10
2023-03-21T07:55:42.810Z,64.39
2023-03-21T07:57:16.300Z,64.20
2023-03-21T07:58:38.167Z,62.48
2023-03-21T08:00:22.962Z,59.64
2023-03-21T08:01:56.952Z,56.39
2023-03-21T08:03:37.298Z,57.08
2023-03-21T08:05:11.560Z,59.01
2023-03-21T08:06:56.720Z,61.27
2023-03-21T08:08:39.382Z,63.65
2023-03-21T08:10:12.959Z,64.54
2023-03-21T08:11:44.367Z,62.54
2023-03-21T08:13:29.089Z,60.11
2023-03-21T08:15:00.989Z,57.68
2023-03-21T08:16:41.407Z,57.57
2023-03-21T08:18:17.259Z,59.41
2023-03-21T08:19:51.002Z,61.31
2023-03-21T08:21:44.507Z,63.30
2023-03-21T08:23:29.260Z,64.28
2023-03-21T08:25:15.813Z,62.02
2023-03-21T08:26:52.603Z,59.84
2023-03-21T08:28:25.645Z,57.56
2023-03-21T08:29:59.446Z,57.32
2023-03-21T08:31:44.434Z,59.42
2023-03-21T08:33:19.730Z,62.36
2023-03-21T08:35:05.113Z,64.41
2023-03-21T08:36:40.318Z,63.77
2023-03-21T08:38:16.074Z,61.82
2023-03-21T08:39:40.326Z,59.51
2023-03-21T08:41:15.969Z,57.06
2023-03-21T08:42:58.123Z,57.43
2023-03-21T08:44:51.015Z,59.51
2023-03-21T08:46:39.266Z,62.08
2023-03-21T08:48:24.782Z,64.95
2023-03-21T08:50:11.834Z,64.52
2023-03-21T08:51:37.606Z,62.07
2023-03-21T08:53:13.836Z,59.40
2023-03-21T08:54:49.516Z,57.00
2023-03-21T08:56:22.667Z,57.63
2023-03-21T08:58:16.762Z,59.32
2023-03-21T08:59:40.884Z,61.87
2023-03-21T09:01:14.360Z,64.00
2023-03-21T09:03:01.359Z,64.39
2023-03-21T09:04:34.836Z,61.61
2023-03-21T09:06:08.851Z,59.39
2023-03-21T09:07:46.500Z,57.43
2023-03-21T09:09:20.047Z,57.59
2023-03-21T09:11:14.087Z,59.43
2023-03-21T09:12:47.618Z,61.44
2023-03-21T09:14:29.177Z,63.73
2023-03-21T09:16:05.640Z,65.19
2023-03-21T09:17:59.380Z,62.90
2023-03-21T09:19:49.861Z,59.71
2023-03-21T09:21:31.930Z,57.13
2023-03-21T09:23:17.273Z,57.94
2023-03-21T09:25:05.509Z,59.89
2023-03-21T09:26:41.301Z,62.02
2023-03-21T09:28:16.450Z,64.26
2023-03-21T09:30:06.036Z,64.78
2023-03-21T09:31:51.731Z,62.44
2023-03-21T09:33:32.841Z,60.15
2023-03-21T09:34:56.105Z,57.83
2023-03-21T09:36:49.309Z,57.38
2023-03-21T09:38:34.857Z,59.51
2023-03-21T09:40:20.192Z,61.87
2023-03-21T09:42:15.189Z,65.22
2023-03-21T09:43:50.672Z,65.43
2023-03-21T09:45:40.659Z,62.03
2023-03-21T09:47:21.388Z,59.05
2023-03-21T09:48:57.416Z,56.47
2023-03-21T09:50:51.314Z,56.73
2023-03-21T09:52:28.173Z,58.55
2023-03-21T09:54:14.046Z,60.70
2023-03-21T09:56:07.863Z,62.73
2023-03-21T09:57:41.840Z,64.47
2023-03-21T09:59:15.817Z,62.82
2023-03-21T10:00:45.965Z,60.04
2023-03-21T10:02:22.144Z,57.81
2023-03-21T10:03:55.955Z,56.97
2023-03-21T10:05:36.782Z,58.70
2023-03-21T10:07:22.566Z,60.38
2023-03-21T10:09:16.541Z,62.83
2023-03-21T10:10:52.148Z,65.48
2023-03-21T10:12:32.986Z,63.44
2023-03-21T10:14:06.842Z,60.47
2023-03-21T10:15:47.844Z,57.90
2023-03-21T10:17:28.172Z,56.56
2023-03-21T10:19:13.348Z,58.06
2023-03-21T10:20:49.333Z,60.21
2023-03-21T10:22:22.549Z,62.32
2023-03-21T10:24:05.987Z,64.14
2023-03-21T10:25:29.736Z,63.92
2023-03-21T10:26:54.003Z,61.67
2023-03-21T10:28:52.717Z,59.59
2023-03-21T10:30:37.826Z,56.79
2023-03-21T10:32:18.732Z,57.53
2023-03-21T10:34:00.434Z,59.53
2023-03-21T10:35:36.956Z,61.66
2023-03-21T10:37:19.287Z,62.87
2023-03-21T10:39:04.688Z,64.18
2023-03-21T10:40:49.345Z,61.67
2023-03-21T10:42:25.001Z,58.20
2023-03-21T10:43:58.554Z,56.38
2023-03-21T10:45:31.843Z,57.42
2023-03-21T10:47:17.018Z,59.00
2023-03-21T10:48:52.572Z,60.59
2023-03-21T10:50:25.460Z,61.84
2023-03-21T10:51:52.765Z,63.64
2023-03-21T10:53:46.964Z,64.28
2023-03-21T10:55:20.326Z,61.44
2023-03-21T10:57:16.709Z,58.25
2023-03-21T10:58:58.543Z,56.55
2023-03-21T11:00:34.240Z,58.20
2023-03-21T11:02:19.693Z,59.94
2023-03-21T11:04:13.421Z,62.04
2023-03-21T11:05:45.170Z,63.56
2023-03-21T11:07:30.894Z,64.55
2023-03-21T11:09:16.072Z,61.99
2023-03-21T11:10:52.529Z,58.41
2023-03-21T11:12:46.945Z,56.18
2023-03-21T11:14:22.626Z,56.97
2023-03-21T11:16:13.341Z,59.06
2023-03-21T11:18:07.947Z,60.37
2023-03-21T11:19:48.669Z,62.12
2023-03-21T11:21:29.675Z,64.01
2023-03-21T11:23:15.174Z,63.46
2023-03-21T11:25:00.435Z,59.79
2023-03-21T11:26:45.238Z,56.67
2023-03-21T11:28:11.598Z,56.15
2023-03-21T11:30:03.228Z,57.67
2023-03-21T11:31:48.233Z,59.56
2023-03-21T11:33:24.025Z,60.57
2023-03-21T11:35:07.421Z,61.90
2023-03-21T11:36:40.873Z,63.10
2023-03-21T11:38:17.308Z,64.29
2023-03-21T11:40:04.452Z,62.17
2023-03-21T11:41:38.167Z,59.29
2023-03-21T11:43:11.891Z,57.09
2023-03-21T11:44:41.245Z,56.56
2023-03-21T11:46:14.950Z,59.11
2023-03-21T11:47:39.451Z,59.33
2023-03-21T11:49:13.858Z,59.98
2023-03-21T11:50:59.596Z,61.09
2023-03-21T11:52:32.432Z,61.86
2023-03-21T11:54:08.752Z,63.35
2023-03-21T11:55:54.209Z,62.36
2023-03-21T11:57:18.739Z,60.06
2023-03-21T11:58:40.357Z,56.90
2023-03-21T12:00:14.159Z,55.29
2023-03-21T12:01:59.518Z,55.96
2023-03-21T12:03:47.280Z,57.52
2023-03-21T12:05:24.924Z,59.12
2023-03-21T12:06:58.500Z,60.49
2023-03-21T12:08:34.786Z,62.15
2023-03-21T12:10:04.954Z,63.87
2023-03-21T12:11:58.976Z,63.10
2023-03-21T12:13:32.153Z,59.78
2023-03-21T12:15:01.388Z,57.09
2023-03-21T12:16:34.723Z,56.79
2023-03-21T12:18:19.702Z,58.06
2023-03-21T12:19:53.044Z,59.28
2023-03-21T12:21:26.477Z,60.50
2023-03-21T12:22:48.380Z,61.62
2023-03-21T12:24:22.247Z,62.36
2023-03-21T12:25:56.202Z,63.88
2023-03-21T12:27:21.936Z,63.48
2023-03-21T12:28:55.643Z,60.90
2023-03-21T12:30:30.834Z,56.83
2023-03-21T12:32:08.037Z,55.70
2023-03-21T12:33:48.951Z,56.21
2023-03-21T12:35:33.109Z,57.61
2023-03-21T12:37:04.339Z,58.90
2023-03-21T12:38:28.129Z,59.79
2023-03-21T12:40:02.548Z,60.88
2023-03-21T12:41:35.592Z,61.91
2023-03-21T12:43:06.709Z,63.17
2023-03-21T12:44:30.334Z,63.53
2023-03-21T12:45:57.262Z,61.24
2023-03-21T12:47:19.109Z,58.25
2023-03-21T12:48:59.191Z,55.75
2023-03-21T12:50:36.777Z,55.94
2023-03-21T12:52:13.189Z,57.09
2023-03-21T12:53:44.541Z,57.84
2023-03-21T12:55:20.728Z,58.65
2023-03-21T12:57:11.100Z,59.64
2023-03-21T12:58:52.376Z,60.66
2023-03-21T13:00:37.295Z,61.56
2023-03-21T13:02:10.711Z,62.01
2023-03-21T13:03:39.922Z,62.02
2023-03-21T13:05:16.874Z,62.73
2023-03-21T13:07:08.995Z,63.87
2023-03-21T13:08:44.766Z,61.15
2023-03-21T13:10:20.780Z,57.04
2023-03-21T13:11:54.373Z,55.15
2023-03-21T13:13:29.919Z,56.45
2023-03-21T13:15:21.705Z,56.49
2023-03-21T13:17:09.520Z,56.56
2023-03-21T13:18:38.427Z,57.26
2023-03-21T13:20:14.975Z,58.01
2023-03-21T13:21:39.282Z,58.79
2023-03-21T13:23:25.262Z,59.14
2023-03-21T13:24:59.891Z,59.16
2023-03-21T13:26:33.647Z,59.56
2023-03-21T13:28:07.172Z,60.50
2023-03-21T13:30:00.235Z,60.40
2023-03-21T13:31:21.973Z,61.04
2023-03-21T13:32:46.441Z,60.75
2023-03-21T13:34:21.903Z,60.62
2023-03-21T13:36:08.201Z,61.00
2023-03-21T13:37:30.680Z,61.17
2023-03-21T13:39:06.971Z,61.47
2023-03-21T13:40:40.609Z,61.53
2023-03-21T13:42:02.910Z,61.88
2023-03-21T13:43:27.312Z,61.31
2023-03-21T13:45:12.954Z,61.26
2023-03-21T13:46:54.223Z,61.81
2023-03-21T13:48:21.042Z,63.27
2023-03-21T13:49:52.775Z,61.57
2023-03-21T13:51:21.702Z,57.58
2023-03-21T13:52:55.846Z,54.19
2023-03-21T13:54:31.205Z,53.86
2023-03-21T13:55:53.200Z,53.91
2023-03-21T13:57:24.878Z,54.68
2023-03-21T13:58:46.977Z,55.44
2023-03-21T14:00:20.515Z,55.65
2023-03-21T14:01:45.210Z,56.75
2023-03-21T14:03:19.538Z,57.40
2023-03-21T14:05:04.923Z,57.58
2023-03-21T14:06:39.032Z,57.39
2023-03-21T14:08:12.708Z,57.16
2023-03-21T14:09:38.983Z,56.03
2023-03-21T14:11:14.998Z,55.79
2023-03-21T14:12:48.710Z,55.90
2023-03-21T14:14:12.766Z,55.61
2023-03-21T14:15:55.168Z,54.68
2023-03-21T14:17:19.860Z,54.39
2023-03-21T14:18:56.252Z,54.10
2023-03-21T14:20:20.012Z,54.03
2023-03-21T14:21:53.550Z,54.13
2023-03-21T14:23:17.405Z,55.12
2023-03-21T14:24:50.937Z,55.13
2023-03-21T14:26:15.329Z,54.71
2023-03-21T14:27:37.790Z,54.94
2023-03-21T14:29:22.907Z,54.79
2023-03-21T14:30:49.858Z,54.89
2023-03-21T14:32:14.406Z,55.01
2023-03-21T14:33:43.689Z,55.07
2023-03-21T14:35:08.323Z,55.26
2023-03-21T14:36:48.625Z,55.70
2023-03-21T14:38:29.449Z,55.86
2023-03-21T14:39:53.747Z,55.58
2023-03-21T14:41:17.529Z,55.73
2023-03-21T14:43:05.997Z,55.91
2023-03-21T14:44:28.096Z,56.08
2023-03-21T14:46:01.701Z,56.34
2023-03-21T14:47:37.323Z,57.04
2023-03-21T14:49:22.828Z,57.86
2023-03-21T14:51:18.041Z,58.59
2023-03-21T14:52:44.032Z,59.10
2023-03-21T14:54:17.489Z,59.69
2023-03-21T14:55:49.124Z,60.29
2023-03-21T14:57:20.254Z,60.33
2023-03-21T14:58:46.975Z,60.33
2023-03-21T15:00:16.459Z,60.42
2023-03-21T15:01:48.135Z,60.91
2023-03-21T15:03:23.484Z,60.92
2023-03-21T15:05:04.625Z,61.20
2023-03-21T15:06:28.189Z,61.59
2023-03-21T15:07:53.598Z,61.88
2023-03-21T15:09:17.666Z,61.95
2023-03-21T15:10:39.130Z,62.17
2023-03-21T15:12:10.568Z,63.08
2023-03-21T15:13:55.714Z,62.88
2023-03-21T15:15:31.144Z,59.65
2023-03-21T15:17:07.441Z,55.62
2023-03-21T15:18:33.297Z,54.51
2023-03-21T15:20:10.143Z,55.04
2023-03-21T15:21:33.966Z,55.93
2023-03-21T15:23:19.383Z,56.97
2023-03-21T15:24:56.063Z,57.55
2023-03-21T15:26:49.972Z,57.74
2023-03-21T15:28:23.018Z,58.19
2023-03-21T15:29:49.869Z,58.76
2023-03-21T15:31:14.193Z,59.20
2023-03-21T15:33:09.001Z,59.40
2023-03-21T15:35:03.972Z,59.82
2023-03-21T15:36:35.501Z,59.84
2023-03-21T15:38:20.914Z,60.25
2023-03-21T15:39:54.471Z,60.61
2023-03-21T15:41:16.488Z,60.89
2023-03-21T15:43:04.020Z,61.27
2023-03-21T15:44:37.589Z,61.80
2023-03-21T15:45:59.927Z,62.31
2023-03-21T15:47:28.787Z,63.31
2023-03-21T15:49:10.043Z,63.10
2023-03-21T15:50:41.345Z,60.31
2023-03-21T15:52:26.910Z,56.23
2023-03-21T15:53:49.120Z,55.08
2023-03-21T15:55:11.098Z,55.69
2023-03-21T15:56:34.726Z,56.42
2023-03-21T15:57:59.919Z,57.57
2023-03-21T15:59:31.546Z,58.66
2023-03-21T16:00:55.450Z,59.35
2023-03-21T16:02:24.984Z,60.03
2023-03-21T16:03:47.917Z,61.05
2023-03-21T16:05:32.867Z,61.68
2023-03-21T16:07:06.708Z,62.34
2023-03-21T16:08:28.643Z,63.51
2023-03-21T16:10:02.238Z,62.75
2023-03-21T16:11:37.630Z,59.29
2023-03-21T16:13:22.766Z,55.74
2023-03-21T16:14:56.560Z,55.39
2023-03-21T16:16:22.735Z,56.41
2023-03-21T16:17:54.456Z,57.46
2023-03-21T16:19:29.968Z,58.42
2023-03-21T16:20:59.339Z,59.55
2023-03-21T16:22:28.413Z,60.74
2023-03-21T16:24:13.890Z,61.63
2023-03-21T16:25:59.673Z,62.55
2023-03-21T16:27:30.720Z,63.52
2023-03-21T16:29:07.054Z,61.37
2023-03-21T16:30:38.498Z,58.15
2023-03-21T16:32:23.926Z,55.43
2023-03-21T16:34:11.582Z,55.84
2023-03-21T16:35:57.031Z,57.36
2023-03-21T16:37:41.851Z,58.87
2023-03-21T16:39:15.516Z,60.00
2023-03-21T16:41:00.809Z,61.01
2023-03-21T16:42:24.521Z,61.98
2023-03-21T16:43:46.290Z,62.82
2023-03-21T16:45:31.232Z,63.77
2023-03-21T16:47:16.476Z,61.08
2023-03-21T16:48:52.661Z,57.41
2023-03-21T16:50:24.283Z,55.69
2023-03-21T16:51:58.086Z,56.27
2023-03-21T16:53:31.370Z,57.65
2023-03-21T16:55:03.219Z,58.94
2023-03-21T16:56:32.733Z,60.42
2023-03-21T16:57:57.570Z,61.59
2023-03-21T16:59:30.862Z,62.74
2023-03-21T17:01:07.168Z,64.01
2023-03-21T17:02:31.370Z,62.13
2023-03-21T17:04:03.155Z,59.22
2023-03-21T17:05:38.971Z,55.91
2023-03-21T17:07:20.151Z,55.90
2023-03-21T17:08:44.402Z,57.23
2023-03-21T17:10:17.901Z,58.61
2023-03-21T17:11:55.295Z,59.80
2023-03-21T17:13:24.838Z,60.99
2023-03-21T17:14:58.987Z,62.19
2023-03-21T17:16:30.079Z,63.76
2023-03-21T17:18:12.063Z,63.87
2023-03-21T17:19:41.390Z,60.62
2023-03-21T17:21:10.814Z,57.67
2023-03-21T17:22:44.501Z,55.78
2023-03-21T17:24:17.585Z,56.87
2023-03-21T17:25:46.808Z,58.45
2023-03-21T17:27:29.212Z,59.76
2023-03-21T17:29:03.149Z,61.07
2023-03-21T17:30:39.869Z,62.46
2023-03-21T17:32:14.026Z,64.27
2023-03-21T17:33:50.128Z,63.16
2023-03-21T17:35:23.746Z,59.95
2023-03-21T17:36:49.505Z,56.96
2023-03-21T17:38:25.115Z,55.88
2023-03-21T17:39:47.835Z,57.01
2023-03-21T17:41:32.898Z,58.59
2023-03-21T17:42:55.334Z,60.22
2023-03-21T17:44:28.425Z,61.73
2023-03-21T17:46:02.920Z,63.39
2023-03-21T17:47:32.857Z,64.31
2023-03-21T17:49:18.065Z,61.87
2023-03-21T17:50:49.553Z,58.50
2023-03-21T17:52:21.375Z,56.01
2023-03-21T17:54:11.375Z,56.53
2023-03-21T17:55:48.017Z,58.43
2023-03-21T17:57:10.399Z,59.86
2023-03-21T17:58:46.701Z,61.39
2023-03-21T18:00:12.466Z,62.99
2023-03-21T18:01:35.314Z,64.59
2023-03-21T18:03:08.288Z,63.17
2023-03-21T18:04:41.578Z,59.87
2023-03-21T18:06:15.601Z,57.06
2023-03-21T18:09:43.879Z,57.72
2023-03-21T18:11:24.753Z,59.49
2023-03-21T18:12:53.042Z,61.03
2023-03-21T18:14:30.632Z,62.46
2023-03-21T18:16:10.464Z,64.49
2023-03-21T18:17:46.703Z,62.96
2023-03-21T18:19:16.033Z,60.16
2023-03-21T18:21:11.000Z,56.63
2023-03-21T18:22:44.359Z,56.02
2023-03-21T18:24:08.748Z,56.99
2023-03-21T18:25:50.528Z,58.37
2023-03-21T18:27:14.420Z,59.81
2023-03-21T18:28:43.667Z,61.09
2023-03-21T18:30:44.357Z,62.22
2023-03-21T18:32:02.538Z,64.24
2023-03-21T18:33:40.459Z,62.73
2023-03-21T18:35:14.614Z,59.66
2023-03-21T18:36:39.364Z,56.81
2023-03-21T18:38:14.581Z,55.93
2023-03-21T18:39:48.462Z,57.20
2023-03-21T18:41:24.818Z,58.72
2023-03-21T18:43:45.897Z,60.30
2023-03-21T18:44:47.020Z,62.10
2023-03-21T18:46:21.457Z,63.99
2023-03-21T18:47:44.212Z,63.83
2023-03-21T18:51:00.935Z,57.04
2023-03-21T18:52:26.311Z,55.85
2023-03-21T18:53:48.705Z,56.64
2023-03-21T18:55:32.751Z,58.21
2023-03-21T18:59:25.684Z,61.99
2023-03-21T19:00:59.696Z,63.75
2023-03-21T19:02:29.109Z,63.93
2023-03-21T19:04:17.835Z,61.29
2023-03-21T19:06:05.149Z,57.27
2023-03-21T19:07:29.927Z,56.53
2023-03-21T19:08:54.686Z,57.49
2023-03-21T19:10:21.839Z,58.90
2023-03-21T19:12:15.651Z,60.43
2023-03-21T19:13:49.765Z,61.95
2023-03-21T19:15:25.775Z,63.73
2023-03-21T19:17:56.418Z,63.77
2023-03-21T19:18:56.505Z,60.19
2023-03-21T19:20:38.300Z,56.70
2023-03-21T19:22:08.597Z,55.94
2023-03-21T19:23:50.129Z,57.23
2023-03-21T19:25:15.486Z,59.19
2023-03-21T19:26:44.776Z,60.70
2023-03-21T19:28:09.737Z,62.11
2023-03-21T19:29:33.891Z,63.83
2023-03-21T19:31:10.003Z,64.23
2023-03-21T19:32:43.755Z,61.39
2023-03-21T19:34:07.981Z,58.56
2023-03-21T19:35:43.671Z,56.18
2023-03-21T19:37:08.044Z,56.53
2023-03-21T19:38:41.553Z,57.97
2023-03-21T19:40:08.687Z,59.79
2023-03-21T19:41:51.084Z,61.39
2023-03-21T19:43:32.864Z,63.43
2023-03-21T19:44:57.943Z,64.55
2023-03-21T19:46:31.225Z,61.95
2023-03-21T19:47:55.980Z,59.08
2023-03-21T19:49:21.969Z,56.46
2023-03-21T19:51:24.697Z,56.18
2023-03-21T19:52:47.243Z,58.01
2023-03-21T19:54:32.701Z,59.70
2023-03-21T19:56:22.417Z,61.45
2023-03-21T19:57:49.610Z,63.15
2023-03-21T19:59:21.036Z,64.50
2023-03-21T20:00:57.498Z,62.84
2023-03-21T20:02:36.144Z,59.76
2023-03-21T20:04:09.983Z,56.40
2023-03-21T20:05:31.668Z,56.02
2023-03-21T20:06:56.933Z,57.17
2023-03-21T20:08:42.835Z,58.84
2023-03-21T20:10:44.011Z,60.74
2023-03-21T20:12:17.681Z,62.30
2023-03-21T20:13:49.654Z,64.37
2023-03-21T20:15:29.452Z,63.69
2023-03-21T20:16:55.340Z,60.65
2023-03-21T20:18:19.538Z,58.26
2023-03-21T20:20:00.163Z,56.76
2023-03-21T20:21:25.951Z,57.98
2023-03-21T20:24:45.527Z,61.66
2023-03-21T20:26:08.007Z,63.70
2023-03-21T20:27:32.110Z,64.72
2023-03-21T20:29:59.927Z,62.54
2023-03-21T20:31:01.985Z,59.18
2023-03-21T20:32:23.366Z,56.72
2023-03-21T20:33:56.774Z,56.52
2023-03-21T20:35:39.883Z,58.09
2023-03-21T20:37:11.413Z,60.19
2023-03-21T20:38:45.804Z,61.94
2023-03-21T20:40:19.098Z,63.91
2023-03-21T20:41:59.788Z,64.40
2023-03-21T20:44:11.601Z,61.89
2023-03-21T20:45:07.994Z,58.46
2023-03-21T20:46:43.778Z,56.36
2023-03-21T20:48:17.297Z,56.84
2023-03-21T20:50:00.009Z,58.19
2023-03-21T20:52:29.560Z,60.17
2023-03-21T20:53:27.078Z,61.70
2023-03-21T20:55:00.565Z,63.91
2023-03-21T20:56:35.993Z,64.09
2023-03-21T20:58:30.246Z,61.96
2023-03-21T21:00:24.944Z,57.49
2023-03-21T21:01:49.540Z,56.29